createdAt,value
2018-03-30T00:00:30.048Z,7.07
2018-03-30T00:05:34.515Z,6.97
2018-03-30T00:10:44.574Z,7.63
2018-03-30T00:15:47.649Z,7.20
2018-03-30T00:20:51.118Z,6.33
2018-03-30T00:25:54.220Z,5.93
2018-03-30T00:30:57.312Z,7.33
2018-03-30T00:36:01.172Z,6.47
2018-03-30T00:41:04.260Z,8.43
2018-03-30T00:46:08.719Z,7.10
2018-03-30T00:51:13.349Z,6.62
2018-03-30T00:56:16.458Z,8.97
2018-03-30T01:01:20.879Z,5.60
2018-03-30T01:06:25.116Z,5.60
2018-03-30T01:11:28.181Z,5.53
2018-03-30T01:16:32.052Z,5.50
2018-03-30T01:21:35.912Z,6.20
2018-03-30T01:26:40.132Z,6.23
2018-03-30T01:31:43.201Z,6.27
2018-03-30T01:36:46.289Z,7.77
2018-03-30T01:41:50.147Z,5.33
2018-03-30T01:46:53.987Z,5.60
2018-03-30T01:51:58.425Z,5.55
2018-03-30T01:57:02.257Z,5.33
2018-03-30T02:02:06.100Z,5.67
2018-03-30T02:07:10.310Z,6.87
2018-03-30T02:12:14.164Z,5.97
2018-03-30T02:17:18.620Z,5.37
2018-03-30T02:22:23.103Z,5.57
2018-03-30T02:27:28.350Z,5.60
2018-03-30T02:32:31.830Z,6.97
2018-03-30T02:37:35.710Z,6.70
2018-03-30T02:42:40.307Z,5.75
2018-03-30T02:47:44.186Z,6.07
2018-03-30T02:52:48.029Z,5.80
2018-03-30T02:57:51.560Z,5.83
2018-03-30T03:02:54.653Z,5.20
2018-03-30T03:07:59.087Z,6.57
2018-03-30T03:13:03.429Z,5.20
2018-03-30T03:18:06.512Z,5.80
2018-03-30T03:23:10.373Z,6.10
2018-03-30T03:28:14.360Z,6.40
2018-03-30T03:33:17.452Z,5.37
2018-03-30T03:38:20.541Z,5.97
2018-03-30T03:43:24.392Z,5.23
2018-03-30T03:48:27.861Z,6.60
2018-03-30T03:53:32.206Z,5.83
2018-03-30T03:58:36.636Z,5.40
2018-03-30T04:03:40.541Z,6.13
2018-03-30T04:08:44.960Z,6.47
2018-03-30T04:13:49.523Z,5.57
2018-03-30T04:18:52.599Z,5.93
2018-03-30T04:23:55.703Z,6.40
2018-03-30T04:28:59.552Z,6.70
2018-03-30T04:34:03.963Z,6.20
2018-03-30T04:39:07.038Z,6.07
2018-03-30T04:44:11.251Z,8.53
2018-03-30T04:49:14.343Z,6.37
2018-03-30T04:54:17.423Z,6.47
2018-03-30T04:59:20.510Z,6.70
2018-03-30T05:04:24.744Z,6.63
2018-03-30T05:09:27.820Z,6.90
2018-03-30T05:14:32.273Z,8.63
2018-03-30T05:19:36.687Z,6.73
2018-03-30T05:24:40.154Z,6.57
2018-03-30T05:29:44.571Z,6.67
2018-03-30T05:34:48.798Z,8.40
2018-03-30T05:39:51.851Z,7.33
2018-03-30T05:44:54.932Z,8.40
2018-03-30T05:49:59.371Z,8.50
2018-03-30T05:55:02.436Z,7.23
2018-03-30T06:00:07.614Z,7.43
2018-03-30T06:05:12.030Z,7.40
2018-03-30T06:10:15.112Z,6.83
2018-03-30T06:15:19.554Z,7.57
2018-03-30T06:20:23.048Z,8.53
2018-03-30T06:25:26.132Z,6.80
2018-03-30T06:30:29.971Z,8.40
2018-03-30T06:35:33.042Z,7.30
2018-03-30T06:40:36.515Z,6.77
2018-03-30T06:45:41.116Z,8.43
2018-03-30T06:50:45.606Z,7.50
2018-03-30T06:55:50.219Z,7.00
2018-03-30T07:00:54.062Z,7.47
2018-03-30T07:06:00.496Z,7.13
2018-03-30T07:11:03.614Z,6.37
2018-03-30T07:16:06.719Z,6.60
2018-03-30T07:21:10.545Z,6.13
2018-03-30T07:26:14.815Z,6.37
2018-03-30T07:31:18.300Z,5.80
2018-03-30T07:36:22.734Z,8.07
2018-03-30T07:41:26.219Z,7.57
2018-03-30T07:46:29.692Z,5.87
2018-03-30T07:51:34.165Z,5.80
2018-03-30T07:56:37.259Z,6.53
2018-03-30T08:01:41.112Z,5.67
2018-03-30T08:06:45.330Z,5.23
2018-03-30T08:11:49.171Z,5.10
2018-03-30T08:16:52.255Z,4.72
2018-03-30T08:21:55.342Z,5.55
2018-03-30T08:26:59.546Z,5.13
2018-03-30T08:32:03.407Z,5.57
2018-03-30T08:37:07.855Z,5.83
2018-03-30T08:42:11.748Z,6.53
2018-03-30T08:47:15.240Z,5.63
2018-03-30T08:52:18.333Z,4.62
2018-03-30T08:57:21.415Z,5.67
2018-03-30T09:02:24.511Z,5.57
2018-03-30T09:07:27.591Z,4.93
2018-03-30T09:12:32.087Z,6.50
2018-03-30T09:17:35.174Z,4.10
2018-03-30T09:22:38.660Z,6.07
2018-03-30T09:27:43.106Z,3.63
2018-03-30T09:32:46.603Z,4.17
2018-03-30T09:37:50.810Z,4.63
2018-03-30T09:42:54.667Z,3.83
2018-03-30T09:47:59.251Z,3.13
2018-03-30T09:53:03.106Z,5.10
2018-03-30T09:58:07.704Z,3.40
2018-03-30T10:03:10.783Z,2.80
2018-03-30T10:08:14.996Z,3.13
2018-03-30T10:13:19.470Z,2.47
2018-03-30T10:18:23.333Z,2.70
2018-03-30T10:23:27.203Z,2.70
2018-03-30T10:28:31.434Z,3.57
2018-03-30T10:33:35.286Z,2.73
2018-03-30T10:38:38.376Z,3.43
2018-03-30T10:43:41.472Z,3.63
2018-03-30T10:48:47.097Z,4.00
2018-03-30T10:53:50.180Z,2.67
2018-03-30T10:58:53.663Z,2.90
2018-03-30T11:03:57.520Z,3.43
2018-03-30T11:09:01.015Z,3.80
2018-03-30T11:14:04.867Z,3.70
2018-03-30T11:19:07.942Z,3.20
2018-03-30T11:24:12.166Z,3.30
2018-03-30T11:29:15.235Z,2.72
2018-03-30T11:34:18.327Z,3.97
2018-03-30T11:39:21.430Z,2.73
2018-03-30T11:44:25.850Z,2.40
2018-03-30T11:49:30.091Z,2.80
2018-03-30T11:54:34.507Z,2.40
2018-03-30T11:59:37.595Z,5.23
2018-03-30T12:04:41.442Z,2.90
2018-03-30T12:09:45.421Z,3.57
2018-03-30T12:14:49.294Z,2.33
2018-03-30T12:19:53.512Z,2.93
2018-03-30T12:24:56.592Z,3.27
2018-03-30T12:29:59.679Z,2.60
2018-03-30T12:35:02.847Z,3.83
2018-03-30T12:40:06.806Z,2.73
2018-03-30T12:45:10.829Z,3.23
2018-03-30T12:50:14.293Z,5.43
2018-03-30T12:55:17.377Z,2.50
2018-03-30T13:00:21.816Z,3.70
2018-03-30T13:05:24.933Z,3.63
2018-03-30T13:10:28.016Z,3.20
2018-03-30T13:15:32.249Z,2.67
2018-03-30T13:20:36.818Z,2.37
2018-03-30T13:25:40.674Z,2.40
2018-03-30T13:30:44.131Z,3.03
2018-03-30T13:35:47.202Z,2.73
2018-03-30T13:40:51.062Z,2.93
2018-03-30T13:45:54.237Z,2.20
2018-03-30T13:51:18.459Z,2.40
2018-03-30T13:56:39.863Z,2.80
2018-03-30T14:02:08.999Z,3.03
2018-03-30T14:12:54.652Z,2.60
2018-03-30T14:18:00.926Z,3.40
2018-03-30T14:23:24.856Z,3.30
2018-03-30T14:28:43.158Z,2.20
2018-03-30T14:33:46.953Z,1.67
2018-03-30T14:39:10.827Z,2.17
2018-03-30T14:44:17.395Z,1.97
2018-03-30T14:49:21.864Z,1.87
2018-03-30T14:54:30.777Z,1.70
2018-03-30T14:59:40.724Z,2.10
2018-03-30T15:10:39.537Z,2.07
2018-03-30T15:21:37.548Z,3.67
2018-03-30T15:26:55.020Z,3.23
2018-03-30T15:32:06.529Z,3.97
2018-03-30T15:37:17.491Z,4.33
2018-03-30T15:42:20.561Z,4.00
2018-03-30T15:47:24.419Z,3.20
2018-03-30T15:52:31.131Z,3.63
2018-03-30T15:57:34.967Z,3.75
2018-03-30T16:02:39.392Z,4.60
2018-03-30T16:07:43.625Z,3.97
2018-03-30T16:12:47.056Z,3.90
2018-03-30T16:17:50.890Z,2.73
2018-03-30T16:22:53.434Z,2.83
2018-03-30T16:27:55.761Z,2.57
2018-03-30T16:32:58.477Z,2.80
2018-03-30T16:38:02.299Z,3.87
2018-03-30T16:43:04.620Z,3.30
2018-03-30T16:48:08.042Z,4.33
2018-03-30T16:53:10.409Z,3.00
2018-03-30T16:58:13.855Z,3.30
2018-03-30T17:03:16.180Z,3.37
2018-03-30T17:08:18.521Z,3.30
2018-03-30T17:13:21.276Z,3.60
2018-03-30T17:18:23.598Z,3.30
2018-03-30T17:23:26.678Z,3.60
2018-03-30T17:28:29.015Z,3.83
2018-03-30T17:33:32.478Z,4.83
2018-03-30T17:38:35.560Z,5.27
2018-03-30T17:43:37.916Z,4.77
2018-03-30T17:48:43.811Z,5.03
2018-03-30T17:53:46.140Z,4.77
2018-03-30T17:58:48.680Z,4.27
2018-03-30T18:03:52.508Z,3.23
2018-03-30T18:08:55.609Z,2.60
2018-03-30T18:13:58.704Z,3.33
2018-03-30T18:19:01.436Z,3.87
2018-03-30T18:24:04.509Z,4.97
2018-03-30T18:29:07.617Z,4.12
2018-03-30T18:34:10.354Z,3.00
2018-03-30T18:39:13.443Z,2.40
2018-03-30T18:44:17.371Z,2.43
2018-03-30T18:49:20.455Z,2.40
2018-03-30T18:54:23.549Z,2.97
2018-03-30T18:59:29.630Z,2.40
2018-03-30T19:04:34.243Z,1.97
2018-03-30T19:09:36.558Z,2.47
2018-03-30T19:14:39.287Z,2.33
2018-03-30T19:19:41.612Z,2.23
2018-03-30T19:24:44.699Z,2.45
2018-03-30T19:29:47.413Z,2.97
2018-03-30T19:34:50.492Z,3.37
2018-03-30T19:39:52.811Z,2.80
2018-03-30T19:44:55.531Z,2.57
2018-03-30T19:49:57.860Z,2.40
2018-03-30T19:55:01.668Z,2.53
2018-03-30T20:00:05.593Z,3.13
2018-03-30T20:05:07.910Z,2.07
2018-03-30T20:10:10.869Z,2.67
2018-03-30T20:15:14.683Z,2.40
2018-03-30T20:20:17.029Z,2.57
2018-03-30T20:25:19.327Z,2.50
2018-03-30T20:30:22.780Z,3.10
2018-03-30T20:35:26.600Z,2.70
2018-03-30T20:40:28.931Z,2.58
2018-03-30T20:45:32.029Z,2.50
2018-03-30T20:50:35.954Z,2.60
2018-03-30T20:55:38.282Z,2.70
2018-03-30T21:00:42.506Z,2.70
2018-03-30T21:05:46.094Z,4.18
2018-03-30T21:10:49.187Z,4.53
2018-03-30T21:15:51.508Z,2.70
2018-03-30T21:20:54.212Z,3.60
2018-03-30T21:25:56.524Z,4.20
2018-03-30T21:30:59.613Z,3.57
2018-03-30T21:36:01.920Z,4.10
2018-03-30T21:41:05.020Z,3.50
2018-03-30T21:46:08.990Z,3.77
2018-03-30T21:51:11.361Z,3.77
2018-03-30T21:56:14.078Z,3.83
2018-03-30T22:01:18.010Z,3.10
2018-03-30T22:06:21.950Z,3.10
2018-03-30T22:11:24.276Z,3.73
2018-03-30T22:16:28.206Z,4.10
2018-03-30T22:21:30.919Z,4.77
2018-03-30T22:26:34.696Z,4.43
2018-03-30T22:31:37.085Z,4.97
2018-03-30T22:36:39.731Z,5.20
2018-03-30T22:41:43.695Z,5.70
2018-03-30T22:46:46.015Z,5.20
2018-03-30T22:51:48.629Z,5.40
2018-03-30T22:56:51.723Z,5.87
2018-03-30T23:01:55.560Z,6.80
2018-03-30T23:07:00.615Z,5.50
2018-03-30T23:12:03.768Z,5.90
2018-03-30T23:17:07.084Z,6.20
2018-03-30T23:22:11.026Z,5.73
2018-03-30T23:27:14.122Z,6.43
2018-03-30T23:32:17.254Z,6.90
2018-03-30T23:37:21.186Z,6.03
2018-03-30T23:42:23.513Z,7.03
2018-03-30T23:47:27.456Z,6.03
2018-03-30T23:52:30.016Z,5.73
2018-03-30T23:57:33.103Z,5.73
